createdAt,value
2019-01-11T00:02:07.910Z,0.76
2019-01-11T00:12:08.045Z,0.72
2019-01-11T00:22:07.807Z,0.71
2019-01-11T00:32:07.944Z,0.68
2019-01-11T00:42:07.851Z,0.64
2019-01-11T00:52:07.839Z,0.64
2019-01-11T01:02:07.815Z,0.67
2019-01-11T01:12:07.814Z,0.67
2019-01-11T01:22:07.888Z,0.69
2019-01-11T01:32:08.371Z,0.72
2019-01-11T01:42:07.804Z,0.77
2019-01-11T01:52:07.881Z,0.77
2019-01-11T02:02:08.014Z,0.77
2019-01-11T02:12:07.882Z,0.76
2019-01-11T02:22:07.837Z,0.70
2019-01-11T02:32:07.802Z,0.70
2019-01-11T02:42:08.094Z,0.70
2019-01-11T02:52:07.790Z,0.71
2019-01-11T03:02:07.877Z,0.73
2019-01-11T03:12:08.025Z,0.78
2019-01-11T03:22:07.770Z,0.84
2019-01-11T03:32:07.775Z,0.88
2019-01-11T03:42:08.012Z,0.95
2019-01-11T03:52:07.870Z,0.99
2019-01-11T04:02:07.816Z,0.98
2019-01-11T04:12:07.789Z,1.00
2019-01-11T04:22:07.810Z,1.04
2019-01-11T04:32:07.787Z,1.10
2019-01-11T04:42:07.735Z,1.17
2019-01-11T04:52:07.722Z,1.21
2019-01-11T05:02:07.772Z,1.21
2019-01-11T05:12:08.010Z,1.25
2019-01-11T05:22:07.825Z,1.21
2019-01-11T05:32:07.939Z,1.23
2019-01-11T05:42:08.085Z,1.24
2019-01-11T05:52:07.897Z,1.37
2019-01-11T06:02:07.864Z,1.43
2019-01-11T06:12:08.036Z,1.43
2019-01-11T06:22:07.898Z,1.49
2019-01-11T06:32:07.813Z,1.54
2019-01-11T06:42:07.978Z,1.59
2019-01-11T06:52:07.846Z,1.61
2019-01-11T07:02:07.913Z,1.64
2019-01-11T07:12:07.964Z,1.63
2019-01-11T07:22:07.746Z,1.70
2019-01-11T07:32:07.793Z,1.77
2019-01-11T07:42:07.969Z,1.80
2019-01-11T07:52:07.731Z,1.85
2019-01-11T08:02:07.701Z,1.94
2019-01-11T08:12:07.745Z,1.94
2019-01-11T08:22:07.723Z,1.94
2019-01-11T08:32:07.782Z,1.97
2019-01-11T08:42:07.827Z,2.01
2019-01-11T08:52:08.764Z,2.06
2019-01-11T09:02:07.775Z,2.17
2019-01-11T09:12:07.790Z,2.18
2019-01-11T09:22:07.750Z,2.23
2019-01-11T09:32:08.304Z,2.33
2019-01-11T09:42:08.383Z,2.50
2019-01-11T09:52:07.727Z,2.54
2019-01-11T10:02:07.675Z,2.56
2019-01-11T10:12:07.765Z,2.66
2019-01-11T10:22:07.756Z,2.91
2019-01-11T10:32:07.736Z,3.00
2019-01-11T10:42:07.775Z,3.20
2019-01-11T10:52:07.685Z,3.21
2019-01-11T11:02:08.479Z,3.24
2019-01-11T11:12:07.760Z,3.30
2019-01-11T11:22:08.061Z,3.23
2019-01-11T11:32:07.684Z,3.16
2019-01-11T11:42:08.944Z,3.32
2019-01-11T11:52:07.644Z,3.39
2019-01-11T12:02:07.796Z,3.48
2019-01-11T12:12:11.512Z,3.63
2019-01-11T12:22:07.669Z,3.85
2019-01-11T12:32:07.672Z,4.01
2019-01-11T12:42:07.965Z,4.22
2019-01-11T12:52:07.827Z,4.28
2019-01-11T13:02:07.778Z,4.30
2019-01-11T13:12:07.697Z,4.28
2019-01-11T13:22:08.691Z,4.25
2019-01-11T13:32:07.734Z,4.44
2019-01-11T13:42:08.425Z,4.72
2019-01-11T13:52:07.893Z,4.83
2019-01-11T14:02:07.734Z,4.98
2019-01-11T14:12:07.669Z,5.11
2019-01-11T14:22:13.478Z,5.17
2019-01-11T14:32:07.642Z,5.28
2019-01-11T14:42:07.646Z,5.48
2019-01-11T14:52:08.312Z,5.53
2019-01-11T15:02:07.661Z,5.52
2019-01-11T15:12:08.308Z,5.58
2019-01-11T15:22:07.681Z,5.67
2019-01-11T15:32:07.815Z,5.76
2019-01-11T15:42:07.936Z,5.86
2019-01-11T15:52:07.640Z,5.94
2019-01-11T16:02:07.882Z,5.99
2019-01-11T16:12:07.725Z,6.01
2019-01-11T16:22:07.650Z,6.03
2019-01-11T16:32:07.676Z,6.03
2019-01-11T16:42:07.881Z,6.04
2019-01-11T16:52:07.644Z,6.02
2019-01-11T17:02:07.655Z,5.94
2019-01-11T17:12:07.665Z,5.92
2019-01-11T17:22:07.593Z,5.89
2019-01-11T17:32:07.629Z,5.89
2019-01-11T17:42:07.634Z,5.88
2019-01-11T17:52:07.813Z,5.88
2019-01-11T18:02:07.607Z,5.86
2019-01-11T18:12:07.717Z,5.85
2019-01-11T18:22:07.650Z,5.84
2019-01-11T18:32:07.614Z,5.81
2019-01-11T18:42:08.590Z,5.78
2019-01-11T18:52:07.750Z,5.75
2019-01-11T19:02:07.645Z,5.75
2019-01-11T19:12:07.899Z,5.75
2019-01-11T19:22:07.549Z,5.74
2019-01-11T19:32:07.656Z,5.76
2019-01-11T19:42:07.693Z,5.75
2019-01-11T19:52:07.644Z,5.73
2019-01-11T20:02:07.606Z,5.72
2019-01-11T20:12:07.676Z,5.72
2019-01-11T20:22:07.590Z,5.71
2019-01-11T20:32:07.591Z,5.69
2019-01-11T20:42:07.893Z,5.69
2019-01-11T20:52:07.636Z,5.68
2019-01-11T21:02:07.872Z,5.69
2019-01-11T21:12:09.110Z,5.68
2019-01-11T21:22:07.538Z,5.63
2019-01-11T21:32:07.605Z,5.62
2019-01-11T21:42:07.679Z,5.58
2019-01-11T21:52:08.590Z,5.57
2019-01-11T22:02:07.682Z,5.53
2019-01-11T22:12:07.601Z,5.54
2019-01-11T22:22:08.661Z,5.54
2019-01-11T22:32:07.626Z,5.51
2019-01-11T22:42:08.024Z,5.46
2019-01-11T22:52:07.735Z,5.40
2019-01-11T23:02:07.780Z,5.38
2019-01-11T23:12:07.648Z,5.34
2019-01-11T23:22:07.568Z,5.34
2019-01-11T23:32:07.731Z,5.31
2019-01-11T23:42:07.801Z,5.33
2019-01-11T23:52:07.631Z,5.30
